セブ の空港の天気 - METARとTAF

マクタン・セブ国際空港 ( RPVM / CEB ) - フィリピン セブ / ラプ=ラプ
飛行場実況気象(Metar)
観測時間08/16 14:00 PHT (08/16 06:00 UTC)
風向・風速南西 5m/s
視程10km以上
天気現象
少しの雲 雲底高度 610m
全天の8割程度の雲 雲底高度 2740m
気温32℃
湿度59%
気圧1006hPa
METARRPVM 160600Z 22010KT 9999 FEW020 BKN090 32/23 Q1006 NOSIG RMK A2971
過去の天気等 Google飛行場航空写真 Wunderground天気予報

過去48時間のMETAR

飛行場予報(TAF)
発表時間: 8/16 13:00 PHT (8/16 05:00 UTC)
予報対象時間: 16日14時 PHT ~ 17日20時 PHT
風向・風速南西 4m/s
視程10km以上
少しの雲 雲底高度 610m
全天の8割程度の雲 雲底高度 9140m
16日14時 PHT ~ 16日20時 PHT に一時的に
風向・風速南南西 5m/s
少しの雲 雲底高度 610m
全天の8割程度の雲 雲底高度 3050m
全天を覆う雲 雲底高度 9140m
16日20時 PHT ~ 17日2時 PHT に一時的に
風向・風速西南西 5m/s
少しの積乱雲 雲底高度 550m
全天の8割程度の雲 雲底高度 2740m
全天を覆う雲 雲底高度 7620m
RPVM 160500Z 1606/1712 22008KT 9999 FEW020 BKN300
TEMPO 1606/1612 21010KT FEW020 BKN100 OVC300
TEMPO 1612/1618 25010KT FEW018CB BKN090 OVC250